createdAt,value
2017-08-24T00:02:23.769Z,20.10
2017-08-24T00:04:51.420Z,20.10
2017-08-24T00:07:19.048Z,20.10
2017-08-24T00:09:46.656Z,20.20
2017-08-24T00:12:14.297Z,20.20
2017-08-24T00:14:41.943Z,20.20
2017-08-24T00:17:09.603Z,20.10
2017-08-24T00:19:37.303Z,20.10
2017-08-24T00:22:04.926Z,20.20
2017-08-24T00:24:32.596Z,20.10
2017-08-24T00:27:00.253Z,20.10
2017-08-24T00:29:27.873Z,20.10
2017-08-24T00:31:55.565Z,20.10
2017-08-24T00:34:23.227Z,20.10
2017-08-24T00:36:50.807Z,20.00
2017-08-24T00:39:18.470Z,20.00
2017-08-24T00:41:46.179Z,19.80
2017-08-24T00:44:13.790Z,19.80
2017-08-24T00:46:41.462Z,19.80
2017-08-24T00:49:09.081Z,19.70
2017-08-24T00:51:36.700Z,19.60
2017-08-24T00:54:04.329Z,19.60
2017-08-24T00:56:31.988Z,19.50
2017-08-24T00:58:59.581Z,19.50
2017-08-24T01:01:28.205Z,19.40
2017-08-24T01:03:55.974Z,19.30
2017-08-24T01:06:23.640Z,19.20
2017-08-24T01:08:51.265Z,19.20
2017-08-24T01:11:18.955Z,19.10
2017-08-24T01:13:46.671Z,19.10
2017-08-24T01:16:14.280Z,19.00
2017-08-24T01:18:41.878Z,18.90
2017-08-24T01:21:09.580Z,18.80
2017-08-24T01:23:37.195Z,18.70
2017-08-24T01:26:04.850Z,18.70
2017-08-24T01:28:32.569Z,18.60
2017-08-24T01:31:00.209Z,18.50
2017-08-24T01:33:27.878Z,18.40
2017-08-24T01:35:55.644Z,18.40
2017-08-24T01:38:23.274Z,18.40
2017-08-24T01:40:50.895Z,18.30
2017-08-24T01:43:18.618Z,18.30
2017-08-24T01:45:46.238Z,18.20
2017-08-24T01:48:13.899Z,18.20
2017-08-24T01:50:41.529Z,18.20
2017-08-24T01:53:09.810Z,18.30
2017-08-24T01:55:37.492Z,18.30
2017-08-24T01:58:05.132Z,18.30
2017-08-24T02:00:32.721Z,18.20
2017-08-24T02:03:00.369Z,18.20
2017-08-24T02:05:27.992Z,18.10
2017-08-24T02:07:55.571Z,18.10
2017-08-24T02:10:23.243Z,18.10
2017-08-24T02:12:50.828Z,18.00
2017-08-24T02:15:18.412Z,18.10
2017-08-24T02:17:46.060Z,18.00
2017-08-24T02:20:13.675Z,18.00
2017-08-24T02:22:41.256Z,18.00
2017-08-24T02:25:08.998Z,17.90
2017-08-24T02:27:36.640Z,17.80
2017-08-24T02:30:04.251Z,17.80
2017-08-24T02:32:32.021Z,17.70
2017-08-24T02:34:59.676Z,17.60
2017-08-24T02:37:27.390Z,17.60
2017-08-24T02:39:54.986Z,17.50
2017-08-24T02:42:22.605Z,17.50
2017-08-24T02:44:50.236Z,17.30
2017-08-24T02:47:17.854Z,17.30
2017-08-24T02:49:45.479Z,17.30
2017-08-24T02:52:13.166Z,17.20
2017-08-24T02:54:40.741Z,17.20
2017-08-24T02:57:08.323Z,17.10
2017-08-24T02:59:35.938Z,17.10
2017-08-24T03:02:03.602Z,17.10
2017-08-24T03:04:31.220Z,17.10
2017-08-24T03:06:58.926Z,17.10
2017-08-24T03:09:26.530Z,17.20
2017-08-24T03:11:54.143Z,17.20
2017-08-24T03:14:21.788Z,17.20
2017-08-24T03:16:49.388Z,17.10
2017-08-24T03:19:16.964Z,17.10
2017-08-24T03:21:44.626Z,17.10
2017-08-24T03:24:12.378Z,17.00
2017-08-24T03:26:39.986Z,17.00
2017-08-24T03:29:07.623Z,16.90
2017-08-24T03:31:35.224Z,16.90
2017-08-24T03:34:02.796Z,16.90
2017-08-24T03:36:30.445Z,16.90
2017-08-24T03:38:58.081Z,16.80
2017-08-24T03:41:25.668Z,16.80
2017-08-24T03:43:53.289Z,16.70
2017-08-24T03:46:20.890Z,16.70
2017-08-24T03:48:48.495Z,16.70
2017-08-24T03:51:16.109Z,16.70
2017-08-24T03:53:43.724Z,16.70
2017-08-24T03:56:11.362Z,16.60
2017-08-24T03:58:38.946Z,16.80
2017-08-24T04:01:06.538Z,16.70
2017-08-24T04:03:34.221Z,16.70
2017-08-24T04:06:01.809Z,16.70
2017-08-24T04:08:29.421Z,16.60
2017-08-24T04:10:57.064Z,16.60
2017-08-24T04:13:24.637Z,16.60
2017-08-24T04:15:52.218Z,16.60
2017-08-24T04:18:19.887Z,16.60
2017-08-24T04:20:48.101Z,16.60
2017-08-24T04:23:15.752Z,16.70
2017-08-24T04:25:43.419Z,16.70
2017-08-24T04:28:11.066Z,16.70
2017-08-24T04:30:38.670Z,16.80
2017-08-24T04:33:06.283Z,16.80
2017-08-24T04:35:33.917Z,16.70
2017-08-24T04:38:01.485Z,16.70
2017-08-24T04:40:29.098Z,16.70
2017-08-24T04:42:56.725Z,16.60
2017-08-24T04:45:24.378Z,16.60
2017-08-24T04:47:52.015Z,16.60
2017-08-24T04:50:20.619Z,16.60
2017-08-24T04:52:48.203Z,16.60
2017-08-24T04:55:15.870Z,16.50
2017-08-24T04:57:43.479Z,16.50
2017-08-24T05:00:11.246Z,16.40
2017-08-24T05:02:38.954Z,16.50
2017-08-24T05:05:06.557Z,16.50
2017-08-24T05:07:34.149Z,16.40
2017-08-24T05:10:01.802Z,16.40
2017-08-24T05:12:29.869Z,16.50
2017-08-24T05:14:57.477Z,16.40
2017-08-24T05:17:25.159Z,16.50
2017-08-24T05:19:52.750Z,16.50
2017-08-24T05:22:20.362Z,16.60
2017-08-24T05:24:47.973Z,16.60
2017-08-24T05:27:15.601Z,16.70
2017-08-24T05:29:43.181Z,16.70
2017-08-24T05:32:10.817Z,16.70
2017-08-24T05:34:38.577Z,16.80
2017-08-24T05:37:06.162Z,16.80
2017-08-24T05:39:33.766Z,16.80
2017-08-24T05:42:01.438Z,16.80
2017-08-24T05:44:29.062Z,16.80
2017-08-24T05:46:56.655Z,16.90
2017-08-24T05:49:24.387Z,17.00
2017-08-24T05:51:51.978Z,17.00
2017-08-24T05:54:19.553Z,17.10
2017-08-24T05:56:47.197Z,17.10
2017-08-24T05:59:14.837Z,17.10
2017-08-24T06:01:42.459Z,17.20
2017-08-24T06:04:10.064Z,17.30
2017-08-24T06:06:37.785Z,17.30
2017-08-24T06:09:05.355Z,17.30
2017-08-24T06:11:35.106Z,17.30
2017-08-24T06:14:09.420Z,17.40
2017-08-24T06:16:37.104Z,17.50
2017-08-24T06:19:04.753Z,17.50
2017-08-24T06:21:32.411Z,17.50
2017-08-24T06:24:04.679Z,17.30
2017-08-24T06:26:32.266Z,17.40
2017-08-24T06:28:59.897Z,17.50
2017-08-24T06:31:27.582Z,17.50
2017-08-24T06:33:55.229Z,17.50
2017-08-24T06:36:22.865Z,17.50
2017-08-24T06:38:50.526Z,17.60
2017-08-24T06:41:18.137Z,17.50
2017-08-24T06:43:45.782Z,17.60
2017-08-24T06:46:13.507Z,17.60
2017-08-24T06:48:41.183Z,17.70
2017-08-24T06:51:08.863Z,17.80
2017-08-24T06:53:36.511Z,18.20
2017-08-24T06:56:04.088Z,18.20
2017-08-24T06:58:31.686Z,18.70
2017-08-24T07:00:59.613Z,19.20
2017-08-24T07:03:27.189Z,19.20
2017-08-24T07:05:54.823Z,19.20
2017-08-24T07:08:22.485Z,19.00
2017-08-24T07:10:50.119Z,18.90
2017-08-24T07:13:17.718Z,19.10
2017-08-24T07:15:45.334Z,18.90
2017-08-24T07:18:12.930Z,18.80
2017-08-24T07:20:40.546Z,18.70
2017-08-24T07:23:08.165Z,19.50
2017-08-24T07:25:35.773Z,19.60
2017-08-24T07:28:03.402Z,19.50
2017-08-24T07:30:31.005Z,19.20
2017-08-24T07:32:58.697Z,18.70
2017-08-24T07:35:26.300Z,20.20
2017-08-24T07:37:53.883Z,20.40
2017-08-24T07:40:21.589Z,19.70
2017-08-24T07:42:49.227Z,19.30
2017-08-24T07:45:16.869Z,20.20
2017-08-24T07:47:44.521Z,19.80
2017-08-24T07:50:12.147Z,19.40
2017-08-24T07:52:39.741Z,19.30
2017-08-24T07:55:07.334Z,20.50
2017-08-24T07:57:35.020Z,20.90
2017-08-24T08:00:03.364Z,20.20
2017-08-24T08:02:30.973Z,20.20
2017-08-24T08:04:58.574Z,20.50
2017-08-24T08:07:26.182Z,20.90
2017-08-24T08:09:53.833Z,20.40
2017-08-24T08:12:21.451Z,20.00
2017-08-24T08:14:49.130Z,19.50
2017-08-24T08:17:16.738Z,19.50
2017-08-24T08:19:44.337Z,19.60
2017-08-24T08:22:11.992Z,19.50
2017-08-24T08:24:42.476Z,19.40
2017-08-24T08:27:10.608Z,19.20
2017-08-24T08:29:38.222Z,19.40
2017-08-24T08:32:05.882Z,19.30
2017-08-24T08:34:33.535Z,19.50
2017-08-24T08:37:01.176Z,19.60
2017-08-24T08:39:29.563Z,19.50
2017-08-24T08:41:57.925Z,19.70
2017-08-24T08:44:25.542Z,19.90
2017-08-24T08:46:53.149Z,20.10
2017-08-24T08:49:20.799Z,19.80
2017-08-24T08:51:48.498Z,19.70
2017-08-24T08:54:16.073Z,19.70
2017-08-24T08:56:43.667Z,19.60
2017-08-24T08:59:11.339Z,19.90
2017-08-24T09:01:38.933Z,20.30
2017-08-24T09:04:06.541Z,21.10
2017-08-24T09:06:35.919Z,20.90
2017-08-24T09:09:03.614Z,21.30
2017-08-24T09:11:31.227Z,21.30
2017-08-24T09:14:00.830Z,21.50
2017-08-24T09:16:28.574Z,22.50
2017-08-24T09:18:56.286Z,22.80
2017-08-24T09:21:25.126Z,22.60
2017-08-24T09:23:52.726Z,22.20
2017-08-24T09:26:21.923Z,21.90
2017-08-24T09:28:49.677Z,21.90
2017-08-24T09:31:17.386Z,23.60
2017-08-24T09:33:45.006Z,24.50
2017-08-24T09:36:12.587Z,24.20
2017-08-24T09:38:40.222Z,23.50
2017-08-24T09:41:07.809Z,23.10
2017-08-24T09:43:35.400Z,22.80
2017-08-24T09:46:03.035Z,23.10
2017-08-24T09:48:30.596Z,23.40
2017-08-24T09:50:58.205Z,24.40
2017-08-24T09:53:25.837Z,26.30
2017-08-24T09:55:53.439Z,25.00
2017-08-24T09:58:21.033Z,25.10
2017-08-24T10:00:48.651Z,25.80
2017-08-24T10:03:16.298Z,25.30
2017-08-24T10:05:43.929Z,25.30
2017-08-24T10:08:11.583Z,25.30
2017-08-24T10:10:39.295Z,25.40
2017-08-24T10:13:06.913Z,25.60
2017-08-24T10:15:35.559Z,25.30
2017-08-24T10:18:03.178Z,25.70
2017-08-24T10:20:30.791Z,24.40
2017-08-24T10:22:59.414Z,24.60
2017-08-24T10:25:27.880Z,25.20
2017-08-24T10:27:55.451Z,25.40
2017-08-24T10:30:23.273Z,24.80
2017-08-24T10:32:50.949Z,25.80
2017-08-24T10:35:18.612Z,26.20
2017-08-24T10:37:46.274Z,26.30
2017-08-24T10:40:13.993Z,26.50
2017-08-24T10:42:41.675Z,25.70
2017-08-24T10:45:09.260Z,26.20
2017-08-24T10:47:36.877Z,26.10
2017-08-24T10:50:04.456Z,25.60
2017-08-24T10:52:32.057Z,26.40
2017-08-24T10:54:59.696Z,27.20
2017-08-24T10:57:27.287Z,27.10
2017-08-24T10:59:54.887Z,25.80
2017-08-24T11:02:22.596Z,25.00
2017-08-24T11:04:50.221Z,27.00
2017-08-24T11:07:17.833Z,25.90
2017-08-24T11:09:45.520Z,26.60
2017-08-24T11:12:13.102Z,27.10
2017-08-24T11:14:40.801Z,25.90
2017-08-24T11:17:08.754Z,26.10
2017-08-24T11:19:36.335Z,25.50
2017-08-24T11:22:03.932Z,26.30
2017-08-24T11:24:31.526Z,26.40
2017-08-24T11:26:59.209Z,26.50
2017-08-24T11:29:26.818Z,25.90
2017-08-24T11:31:54.399Z,25.60
2017-08-24T11:34:22.192Z,25.10
2017-08-24T11:36:49.795Z,25.40
2017-08-24T11:39:17.379Z,25.70
2017-08-24T11:41:45.068Z,25.50
2017-08-24T11:44:12.745Z,25.80
2017-08-24T11:46:40.374Z,25.40
2017-08-24T11:49:07.941Z,26.00
2017-08-24T11:51:35.552Z,26.10
2017-08-24T11:54:03.135Z,26.40
2017-08-24T11:56:30.727Z,26.00
2017-08-24T11:58:58.387Z,26.00
2017-08-24T12:01:25.978Z,24.70
2017-08-24T12:03:53.565Z,24.80
2017-08-24T12:06:21.195Z,25.70
2017-08-24T12:08:48.788Z,25.10
2017-08-24T12:11:16.533Z,25.90
2017-08-24T12:13:44.202Z,26.80
2017-08-24T12:16:11.918Z,26.60
2017-08-24T12:18:39.525Z,26.20
2017-08-24T12:21:07.114Z,25.70
2017-08-24T12:23:34.851Z,26.10
2017-08-24T12:26:02.541Z,26.50
2017-08-24T12:28:30.168Z,26.10
2017-08-24T12:30:57.892Z,26.10
2017-08-24T12:33:25.513Z,26.40
2017-08-24T12:35:53.873Z,25.50
2017-08-24T12:38:21.479Z,25.50
2017-08-24T12:40:49.081Z,25.00
2017-08-24T12:43:16.662Z,24.70
2017-08-24T12:45:44.294Z,24.90
2017-08-24T12:48:12.038Z,25.30
2017-08-24T12:50:39.705Z,25.30
2017-08-24T12:53:07.334Z,25.00
2017-08-24T12:55:35.648Z,24.40
2017-08-24T12:58:03.274Z,24.90
2017-08-24T13:00:30.928Z,25.00
2017-08-24T13:02:58.511Z,25.10
2017-08-24T13:05:26.168Z,25.20
2017-08-24T13:07:53.796Z,25.00
2017-08-24T13:10:21.360Z,24.50
2017-08-24T13:12:48.984Z,24.20
2017-08-24T13:15:16.585Z,24.00
2017-08-24T13:17:44.174Z,23.70
2017-08-24T13:20:11.795Z,23.70
2017-08-24T13:22:40.385Z,24.10
2017-08-24T13:25:08.546Z,24.10
2017-08-24T13:27:36.149Z,23.90
2017-08-24T13:30:03.881Z,23.70
2017-08-24T13:32:31.474Z,23.80
2017-08-24T13:34:59.075Z,23.70
2017-08-24T13:37:26.664Z,23.70
2017-08-24T13:39:54.253Z,24.00
2017-08-24T13:42:21.860Z,23.80
2017-08-24T13:44:49.453Z,24.10
2017-08-24T13:47:17.130Z,23.90
2017-08-24T13:49:44.783Z,24.10
2017-08-24T13:52:12.351Z,24.50
2017-08-24T13:54:39.946Z,24.60
2017-08-24T13:57:07.556Z,25.00
2017-08-24T13:59:35.138Z,24.60
2017-08-24T14:02:02.716Z,24.70
2017-08-24T14:04:30.315Z,24.70
2017-08-24T14:06:57.879Z,24.90
2017-08-24T14:09:25.510Z,24.70
2017-08-24T14:11:53.162Z,24.40
2017-08-24T14:14:20.752Z,24.20
2017-08-24T14:16:48.331Z,24.10
2017-08-24T14:19:16.062Z,23.60
2017-08-24T14:21:43.671Z,23.70
2017-08-24T14:24:11.297Z,24.10
2017-08-24T14:26:38.937Z,24.10
2017-08-24T14:29:06.605Z,23.80
2017-08-24T14:31:34.192Z,23.60
2017-08-24T14:34:01.922Z,23.50
2017-08-24T14:36:29.490Z,23.40
2017-08-24T14:38:57.083Z,23.60
2017-08-24T14:41:24.703Z,23.60
2017-08-24T14:43:52.395Z,23.50
2017-08-24T14:46:20.024Z,23.50
2017-08-24T14:48:47.601Z,23.70
2017-08-24T14:51:15.343Z,24.00
2017-08-24T14:53:42.975Z,24.10
2017-08-24T14:56:10.570Z,24.20
2017-08-24T14:58:38.171Z,24.20
2017-08-24T15:01:05.785Z,23.90
2017-08-24T15:03:33.405Z,23.80
2017-08-24T15:06:01.024Z,23.60
2017-08-24T15:08:28.642Z,23.60
2017-08-24T15:10:56.237Z,23.70
2017-08-24T15:13:23.893Z,23.60
2017-08-24T15:15:51.532Z,23.60
2017-08-24T15:18:19.163Z,23.70
2017-08-24T15:20:46.766Z,23.70
2017-08-24T15:23:14.453Z,23.40
2017-08-24T15:25:42.027Z,23.20
2017-08-24T15:28:09.605Z,23.10
2017-08-24T15:30:37.207Z,23.10
2017-08-24T15:33:04.793Z,23.10
2017-08-24T15:35:32.409Z,23.10
2017-08-24T15:38:00.016Z,23.10
2017-08-24T15:40:28.588Z,23.00
2017-08-24T15:42:56.206Z,23.10
2017-08-24T15:45:23.820Z,23.20
2017-08-24T15:47:51.418Z,23.00
2017-08-24T15:50:18.991Z,22.80
2017-08-24T15:52:46.625Z,23.20
2017-08-24T15:55:14.214Z,23.30
2017-08-24T15:57:41.791Z,23.40
2017-08-24T16:00:09.417Z,23.30
2017-08-24T16:02:37.062Z,23.40
2017-08-24T16:05:04.688Z,23.40
2017-08-24T16:07:32.303Z,23.20
2017-08-24T16:09:59.902Z,23.10
2017-08-24T16:12:27.489Z,23.00
2017-08-24T16:14:55.103Z,22.80
2017-08-24T16:17:22.869Z,22.90
2017-08-24T16:19:50.516Z,22.80
2017-08-24T16:22:18.148Z,22.70
2017-08-24T16:24:45.754Z,22.70
2017-08-24T16:27:13.367Z,22.80
2017-08-24T16:29:41.919Z,22.90
2017-08-24T16:32:09.534Z,22.90
2017-08-24T16:34:37.128Z,22.90
2017-08-24T16:37:04.801Z,22.90
2017-08-24T16:39:32.375Z,22.90
2017-08-24T16:41:59.999Z,22.90
2017-08-24T16:44:27.681Z,23.00
2017-08-24T16:46:55.270Z,23.20
2017-08-24T16:49:22.845Z,23.00
2017-08-24T16:51:50.537Z,23.00
2017-08-24T16:54:18.137Z,22.90
2017-08-24T16:56:45.771Z,22.90
2017-08-24T16:59:13.422Z,22.70
2017-08-24T17:01:41.039Z,22.70
2017-08-24T17:04:08.629Z,22.50
2017-08-24T17:06:36.293Z,22.50
2017-08-24T17:09:04.007Z,22.40
2017-08-24T17:11:31.568Z,22.30
2017-08-24T17:13:59.178Z,22.30
2017-08-24T17:16:26.837Z,22.20
2017-08-24T17:18:54.429Z,22.20
2017-08-24T17:21:22.069Z,22.10
2017-08-24T17:23:49.712Z,21.90
2017-08-24T17:26:17.340Z,21.90
2017-08-24T17:28:44.917Z,21.80
2017-08-24T17:31:12.533Z,21.80
2017-08-24T17:33:40.133Z,21.70
2017-08-24T17:36:07.769Z,21.70
2017-08-24T17:38:35.438Z,21.70
2017-08-24T17:41:03.076Z,21.60
2017-08-24T17:43:30.681Z,21.50
2017-08-24T17:45:58.287Z,21.50
2017-08-24T17:48:25.922Z,21.50
2017-08-24T17:50:53.546Z,21.50
2017-08-24T17:53:21.162Z,21.50
2017-08-24T17:55:48.801Z,21.40
2017-08-24T17:58:16.409Z,21.30
2017-08-24T18:00:44.005Z,21.30
2017-08-24T18:03:11.686Z,21.30
2017-08-24T18:05:39.273Z,21.20
2017-08-24T18:08:06.860Z,21.20
2017-08-24T18:10:34.542Z,21.20
2017-08-24T18:13:02.189Z,21.00
2017-08-24T18:15:29.826Z,20.90
2017-08-24T18:17:57.503Z,20.90
2017-08-24T18:20:25.155Z,20.70
2017-08-24T18:22:52.792Z,20.50
2017-08-24T18:25:20.390Z,20.40
2017-08-24T18:27:48.124Z,20.20
2017-08-24T18:30:15.804Z,20.30
2017-08-24T18:32:43.412Z,20.30
2017-08-24T18:35:11.077Z,20.40
2017-08-24T18:37:38.723Z,20.50
2017-08-24T18:40:06.348Z,20.50
2017-08-24T18:42:34.169Z,20.40
2017-08-24T18:45:01.867Z,20.40
2017-08-24T18:47:29.448Z,20.30
2017-08-24T18:49:57.051Z,20.10
2017-08-24T18:52:24.680Z,20.00
2017-08-24T18:54:52.258Z,19.80
2017-08-24T18:57:19.944Z,19.80
2017-08-24T18:59:47.619Z,19.90
2017-08-24T19:02:17.801Z,19.80
2017-08-24T19:04:45.411Z,19.80
2017-08-24T19:07:13.034Z,19.70
2017-08-24T19:09:40.656Z,19.60
2017-08-24T19:12:08.316Z,19.60
2017-08-24T19:14:35.931Z,19.50
2017-08-24T19:17:03.576Z,19.50
2017-08-24T19:19:31.235Z,19.40
2017-08-24T19:21:59.709Z,19.40
2017-08-24T19:24:27.352Z,19.30
2017-08-24T19:26:55.029Z,19.20
2017-08-24T19:29:22.658Z,19.20
2017-08-24T19:31:50.265Z,19.20
2017-08-24T19:34:17.894Z,19.10
2017-08-24T19:36:45.581Z,19.00
2017-08-24T19:39:13.200Z,18.90
2017-08-24T19:41:40.779Z,18.90
2017-08-24T19:44:08.424Z,18.80
2017-08-24T19:46:36.037Z,18.80
2017-08-24T19:49:03.694Z,18.80
2017-08-24T19:51:31.383Z,18.80
2017-08-24T19:53:59.063Z,18.80
2017-08-24T19:56:26.679Z,18.80
2017-08-24T19:58:54.306Z,18.80
2017-08-24T20:01:21.945Z,18.80
2017-08-24T20:03:49.550Z,18.70
2017-08-24T20:06:17.207Z,18.70
2017-08-24T20:08:44.890Z,18.70
2017-08-24T20:11:12.603Z,18.50
2017-08-24T20:13:40.318Z,18.40
2017-08-24T20:16:07.943Z,18.30
2017-08-24T20:18:35.664Z,18.30
2017-08-24T20:21:03.286Z,18.20
2017-08-24T20:23:30.920Z,18.00
2017-08-24T20:25:58.582Z,18.00
2017-08-24T20:28:26.175Z,17.80
2017-08-24T20:30:53.775Z,17.90
2017-08-24T20:33:21.500Z,17.90
2017-08-24T20:35:49.146Z,17.90
2017-08-24T20:38:16.731Z,17.80
2017-08-24T20:40:44.482Z,17.70
2017-08-24T20:43:12.170Z,17.60
2017-08-24T20:45:39.763Z,17.50
2017-08-24T20:48:07.421Z,17.50
2017-08-24T20:50:35.022Z,17.40
2017-08-24T20:53:02.719Z,17.30
2017-08-24T20:55:30.370Z,17.10
2017-08-24T20:57:58.026Z,17.10
2017-08-24T21:00:25.789Z,17.00
2017-08-24T21:02:53.363Z,16.90
2017-08-24T21:05:21.001Z,16.80
2017-08-24T21:07:48.573Z,16.80
2017-08-24T21:10:16.168Z,16.80
2017-08-24T21:12:43.862Z,16.70
2017-08-24T21:15:11.543Z,16.60
2017-08-24T21:17:39.195Z,16.50
2017-08-24T21:20:06.818Z,16.50
2017-08-24T21:22:34.475Z,16.50
2017-08-24T21:25:02.091Z,16.60
2017-08-24T21:27:29.768Z,16.50
2017-08-24T21:29:57.429Z,16.50
2017-08-24T21:32:25.070Z,16.50
2017-08-24T21:34:52.712Z,16.40
2017-08-24T21:37:20.314Z,16.40
2017-08-24T21:39:47.919Z,16.30
2017-08-24T21:42:15.587Z,16.30
2017-08-24T21:44:43.222Z,16.30
2017-08-24T21:47:10.880Z,16.20
2017-08-24T21:49:38.534Z,16.20
2017-08-24T21:52:06.151Z,16.20
2017-08-24T21:54:33.764Z,16.20
2017-08-24T21:57:01.396Z,16.30
2017-08-24T21:59:28.997Z,16.30
2017-08-24T22:01:56.758Z,16.30
2017-08-24T22:04:24.655Z,16.40
2017-08-24T22:06:52.263Z,16.30
2017-08-24T22:09:19.855Z,16.30
2017-08-24T22:11:47.539Z,16.30
2017-08-24T22:14:15.128Z,16.30
2017-08-24T22:16:42.767Z,16.40
2017-08-24T22:19:10.487Z,16.40
2017-08-24T22:21:38.193Z,16.50
2017-08-24T22:24:05.801Z,16.50
2017-08-24T22:26:33.453Z,16.50
2017-08-24T22:29:01.080Z,16.50
2017-08-24T22:31:28.761Z,16.50
2017-08-24T22:33:56.412Z,16.50
2017-08-24T22:36:24.079Z,16.30
2017-08-24T22:38:51.695Z,16.10
2017-08-24T22:41:19.272Z,16.00
2017-08-24T22:43:46.867Z,16.00
2017-08-24T22:46:14.437Z,15.90
2017-08-24T22:48:42.044Z,15.70
2017-08-24T22:51:09.735Z,15.60
2017-08-24T22:53:43.062Z,15.60
2017-08-24T22:56:16.535Z,15.50
2017-08-24T22:58:49.767Z,15.50
2017-08-24T23:01:23.082Z,15.50
2017-08-24T23:04:06.292Z,15.40
2017-08-24T23:06:33.946Z,15.40
2017-08-24T23:09:01.576Z,15.40
2017-08-24T23:11:29.186Z,15.40
2017-08-24T23:13:56.859Z,15.40
2017-08-24T23:16:24.470Z,15.30
2017-08-24T23:18:52.186Z,15.20
2017-08-24T23:21:19.859Z,15.10
2017-08-24T23:23:47.495Z,15.20
2017-08-24T23:26:15.120Z,15.20
2017-08-24T23:28:42.714Z,15.10
2017-08-24T23:31:10.354Z,15.00
2017-08-24T23:33:38.034Z,15.00
2017-08-24T23:36:05.656Z,14.90
2017-08-24T23:38:33.238Z,14.90
2017-08-24T23:41:00.854Z,14.90
2017-08-24T23:43:28.555Z,14.80
2017-08-24T23:45:56.242Z,14.90
2017-08-24T23:48:23.862Z,14.80
2017-08-24T23:50:51.443Z,14.80
2017-08-24T23:53:19.065Z,14.70
2017-08-24T23:55:46.719Z,14.70
2017-08-24T23:58:14.413Z,14.60
